Time;durP1;ratioP1;P1;durP2;ratioP2;P2;SDS_P1;SDS_P2;PMS_P1;PMS_P2;Temp;Humidity;BMP_temperature;BMP_pressure;BME280_temperature;BME280_humidity;BME280_pressure;Samples;Min_cycle;Max_cycle;Signal;HPM_P1;HPM_P2
2022/10/18 00:01:00;;;;;;;86.30;40.12;;;;;;;1.95;100.00;102480.59;1716356;84;21024;-71
2022/10/18 00:03:28;;;;;;;92.53;41.37;;;;;;;1.91;100.00;102481.77;1716129;83;21090;-71
2022/10/18 00:05:55;;;;;;;82.75;40.67;;;;;;;1.93;100.00;102469.95;1716303;83;21555;-71
2022/10/18 00:08:23;;;;;;;85.90;40.43;;;;;;;1.93;100.00;102469.95;1716316;84;21098;-71
2022/10/18 00:10:50;;;;;;;87.22;40.90;;;;;;;1.93;100.00;102480.12;1716163;83;21012;-71
2022/10/18 00:13:20;;;;;;;83.80;40.00;;;;;;;1.95;100.00;102479.74;1716324;84;21580;-71
2022/10/18 00:15:50;;;;;;;84.62;40.55;;;;;;;1.99;100.00;102480.26;1716243;84;21027;-71
2022/10/18 00:18:18;;;;;;;84.47;40.92;;;;;;;2.00;100.00;102489.58;1715377;83;21118;-70
2022/10/18 00:20:45;;;;;;;80.38;39.05;;;;;;;1.99;100.00;102487.46;1716346;84;21028;-71
2022/10/18 00:23:12;;;;;;;77.22;39.33;;;;;;;1.94;100.00;102481.82;1716246;83;21063;-71
2022/10/18 00:25:39;;;;;;;78.75;40.00;;;;;;;1.85;100.00;102485.02;1716143;83;21464;-70
2022/10/18 00:28:06;;;;;;;83.17;39.80;;;;;;;1.85;100.00;102490.09;1716173;82;21043;-71
2022/10/18 00:30:32;;;;;;;84.40;40.78;;;;;;;1.86;100.00;102485.86;1716268;83;21115;-70
2022/10/18 00:32:59;;;;;;;80.32;39.70;;;;;;;1.88;100.00;102485.48;1716195;83;21067;-71
2022/10/18 00:35:26;;;;;;;78.35;39.73;;;;;;;1.88;100.00;102482.95;1716355;84;21087;-71
2022/10/18 00:37:54;;;;;;;88.20;42.43;;;;;;;1.87;100.00;102474.48;1716074;82;21055;-71
2022/10/18 00:40:21;;;;;;;89.70;41.80;;;;;;;1.87;100.00;102470.67;1716258;84;21036;-71
2022/10/18 00:42:48;;;;;;;86.70;42.43;;;;;;;1.83;100.00;102469.30;1716148;83;21138;-71
2022/10/18 00:45:24;;;;;;;78.75;40.38;;;;;;;1.79;100.00;102469.21;1716374;83;21572;-71
2022/10/18 00:47:56;;;;;;;93.70;44.38;;;;;;;1.79;100.00;102470.48;1716179;84;21008;-71
2022/10/18 00:50:25;;;;;;;93.37;45.63;;;;;;;1.72;100.00;102469.88;1716223;84;21020;-71
2022/10/18 00:52:57;;;;;;;90.72;44.35;;;;;;;1.63;100.00;102465.86;1716176;82;21130;-71
2022/10/18 00:55:25;;;;;;;86.85;42.98;;;;;;;1.59;100.00;102464.06;1716453;84;21095;-71
2022/10/18 00:57:54;;;;;;;93.47;43.30;;;;;;;1.63;100.00;102471.35;1716337;84;21581;-71
2022/10/18 01:00:21;;;;;;;88.30;41.98;;;;;;;1.64;100.00;102467.56;1716056;82;21091;-71
2022/10/18 01:02:49;;;;;;;82.47;40.90;;;;;;;1.65;100.00;102469.30;1716050;83;21048;-71
2022/10/18 01:05:18;;;;;;;88.80;41.45;;;;;;;1.66;100.00;102470.14;1716352;84;21094;-71
2022/10/18 01:07:58;;;;;;;78.42;40.25;;;;;;;1.66;100.00;102467.19;1716297;84;21063;-71
2022/10/18 01:10:55;;;;;;;80.75;40.95;;;;;;;1.68;100.00;102465.55;1716353;84;21052;-71
2022/10/18 01:14:03;;;;;;;80.55;39.00;;;;;;;1.68;100.00;102459.61;1716085;83;21106;-71
2022/10/18 01:16:45;;;;;;;76.53;37.23;;;;;;;1.62;100.00;102451.44;1716297;84;21059;-71
2022/10/18 01:19:54;;;;;;;78.85;36.55;;;;;;;1.58;100.00;102448.38;1716076;83;21072;-71
2022/10/18 01:22:53;;;;;;;71.75;35.15;;;;;;;1.55;100.00;102454.66;1716457;83;21087;-71
2022/10/18 01:25:41;;;;;;;67.87;32.85;;;;;;;1.53;100.00;102451.23;1695271;84;21075;-71
2022/10/18 01:28:40;;;;;;;67.47;33.13;;;;;;;1.49;100.00;102446.48;1716089;84;21074;-71
2022/10/18 01:31:13;;;;;;;67.08;33.30;;;;;;;1.46;100.00;102450.61;1716077;82;21107;-71
2022/10/18 01:33:48;;;;;;;72.42;32.95;;;;;;;1.42;100.00;102447.16;1716488;84;21051;-71
2022/10/18 01:36:37;;;;;;;71.02;33.08;;;;;;;1.38;100.00;102442.41;1716335;83;21067;-71
2022/10/18 01:39:10;;;;;;;67.62;32.78;;;;;;;1.35;100.00;102447.81;1716339;84;21072;-71
2022/10/18 01:41:40;;;;;;;69.58;32.58;;;;;;;1.33;100.00;102441.42;1716190;84;21044;-71
2022/10/18 01:44:11;;;;;;;63.70;33.40;;;;;;;1.34;100.00;102451.19;1694065;84;21060;-72
2022/10/18 01:46:40;;;;;;;65.52;32.28;;;;;;;1.31;100.00;102445.61;1716214;84;21505;-71
2022/10/18 01:49:07;;;;;;;64.80;32.93;;;;;;;1.31;100.00;102443.48;1716488;82;21007;-71
2022/10/18 01:51:34;;;;;;;72.00;33.53;;;;;;;1.32;100.00;102442.27;1716109;82;21059;-71
2022/10/18 01:54:02;;;;;;;65.17;32.10;;;;;;;1.31;100.00;102446.02;1716083;83;21122;-70
2022/10/18 01:57:07;;;;;;;61.77;32.40;;;;;;;1.32;100.00;102444.80;1716304;84;21103;-71
2022/10/18 02:00:07;;;;;;;67.90;32.75;;;;;;;1.35;100.00;102442.74;1716321;84;22349;-71
2022/10/18 02:02:59;;;;;;;64.62;31.82;;;;;;;1.35;100.00;102447.40;1716490;84;21051;-71
2022/10/18 02:05:57;;;;;;;66.62;33.95;;;;;;;1.31;100.00;102439.27;1716105;82;21091;-71
2022/10/18 02:08:42;;;;;;;62.93;32.00;;;;;;;1.32;100.00;102439.73;1716092;83;21044;-71
2022/10/18 02:11:15;;;;;;;62.35;32.40;;;;;;;1.31;100.00;102432.06;1702188;84;21054;-71
2022/10/18 02:13:58;;;;;;;64.00;32.55;;;;;;;1.27;100.00;102436.62;1716334;84;21032;-71
2022/10/18 02:16:35;;;;;;;64.62;32.15;;;;;;;1.22;100.00;102426.75;1716310;82;21516;-71
2022/10/18 02:19:21;;;;;;;64.42;32.58;;;;;;;1.18;100.00;102424.15;1716187;83;22668;-71
2022/10/18 02:21:49;;;;;;;;;;;;;;;1.21;100.00;102422.09;1718872;84;21103;-71
2022/10/18 02:24:20;;;;;;;68.67;32.98;;;;;;;1.21;100.00;102418.28;1716117;84;20149;-72
2022/10/18 02:26:47;;;;;;;68.05;33.42;;;;;;;1.19;100.00;102414.85;1716467;84;21023;-71
2022/10/18 02:29:15;;;;;;;70.17;33.85;;;;;;;1.18;100.00;102424.56;1716006;84;21123;-71
2022/10/18 02:31:49;;;;;;;68.50;32.78;;;;;;;1.15;100.00;102421.52;1716144;84;21075;-71
2022/10/18 02:34:33;;;;;;;66.85;33.65;;;;;;;1.15;100.00;102418.13;1715303;83;21036;-71
2022/10/18 02:37:02;;;;;;;66.75;32.80;;;;;;;1.13;100.00;102416.81;1716271;84;21578;-71
2022/10/18 02:39:34;;;;;;;65.05;32.65;;;;;;;1.12;100.00;102423.99;1716228;83;21040;-71
2022/10/18 02:42:05;;;;;;;65.22;34.58;;;;;;;1.10;100.00;102414.22;1716548;84;21020;-71
2022/10/18 02:44:35;;;;;;;72.30;34.48;;;;;;;1.12;100.00;102420.19;1716245;84;21040;-71
2022/10/18 02:47:05;;;;;;;69.72;35.05;;;;;;;1.13;100.00;102421.89;1716359;84;21095;-71
2022/10/18 02:49:32;;;;;;;80.45;36.03;;;;;;;1.16;100.00;102427.48;1716389;83;21079;-72
2022/10/18 02:52:00;;;;;;;70.42;34.25;;;;;;;1.13;100.00;102429.92;1716214;84;21024;-72
2022/10/18 02:54:27;;;;;;;72.67;34.95;;;;;;;1.11;100.00;102437.89;1716560;84;21063;-71
2022/10/18 02:56:55;;;;;;;70.37;35.48;;;;;;;1.10;100.00;102438.73;1717696;83;21091;-71
2022/10/18 02:59:22;;;;;;;71.35;35.75;;;;;;;1.05;100.00;102432.25;1716371;84;21651;-71
2022/10/18 03:01:49;;;;;;;63.28;33.15;;;;;;;1.05;100.00;102433.94;1716085;84;21063;-71
2022/10/18 03:04:16;;;;;;;69.53;33.28;;;;;;;1.04;100.00;102428.42;1716139;84;21122;-72
2022/10/18 03:06:44;;;;;;;72.82;34.65;;;;;;;0.96;100.00;102432.88;1716382;82;21127;-72
2022/10/18 03:09:11;;;;;;;66.90;34.00;;;;;;;0.92;100.00;102423.47;1716333;83;21055;-72
2022/10/18 03:11:38;;;;;;;66.05;33.45;;;;;;;0.91;100.00;102423.03;1716168;82;21524;-71
2022/10/18 03:14:06;;;;;;;69.72;33.30;;;;;;;0.88;100.00;102425.47;1716177;83;21051;-72
2022/10/18 03:16:37;;;;;;;71.57;34.50;;;;;;;0.85;100.00;102430.86;1716380;83;21071;-72
2022/10/18 03:19:05;;;;;;;69.72;33.20;;;;;;;0.79;100.00;102430.28;1716238;83;21135;-72
2022/10/18 03:21:32;;;;;;;67.40;34.40;;;;;;;0.75;100.00;102423.03;1716229;83;21139;-72
2022/10/18 03:23:59;;;;;;;68.85;33.45;;;;;;;0.71;100.00;102422.87;1716161;84;21047;-71
2022/10/18 03:26:28;;;;;;;70.37;33.08;;;;;;;0.68;100.00;102423.66;1716027;83;21195;-72
2022/10/18 03:28:55;;;;;;;63.00;32.60;;;;;;;0.66;100.00;102418.11;1716426;82;21024;-72
2022/10/18 03:31:22;;;;;;;64.15;32.53;;;;;;;0.65;100.00;102412.19;1716316;84;21587;-71
2022/10/18 03:33:50;;;;;;;66.33;32.83;;;;;;;0.68;100.00;102414.79;1716493;84;21043;-72
2022/10/18 03:36:17;;;;;;;63.33;33.00;;;;;;;0.74;100.00;102416.22;1716176;84;21091;-71
2022/10/18 03:38:44;;;;;;;64.80;32.63;;;;;;;0.75;100.00;102411.62;1716155;84;21033;-72
2022/10/18 03:41:11;;;;;;;70.17;34.83;;;;;;;0.76;100.00;102412.05;1716360;84;21055;-72
2022/10/18 03:43:38;;;;;;;67.55;32.63;;;;;;;0.71;100.00;102407.67;1716096;83;21044;-71
2022/10/18 03:46:06;;;;;;;66.35;32.93;;;;;;;0.66;100.00;102405.44;1716039;83;21039;-72
2022/10/18 03:48:35;;;;;;;68.40;33.48;;;;;;;0.65;100.00;102403.31;1715987;84;21036;-72
2022/10/18 03:51:02;;;;;;;68.50;34.80;;;;;;;0.69;100.00;102395.36;1716028;84;21095;-72
2022/10/18 03:53:29;;;;;;;70.42;34.60;;;;;;;0.74;100.00;102398.48;1716245;84;21087;-71
2022/10/18 03:55:58;;;;;;;66.47;34.10;;;;;;;0.76;100.00;102391.77;1716229;82;21047;-72
2022/10/18 03:58:25;;;;;;;67.80;34.95;;;;;;;0.75;100.00;102396.41;1716037;83;21085;-72
2022/10/18 04:00:54;;;;;;;73.02;35.80;;;;;;;0.78;100.00;102393.09;1716140;84;21047;-72
2022/10/18 04:03:22;;;;;;;64.90;33.67;;;;;;;0.78;100.00;102381.68;1716276;84;21039;-72
2022/10/18 04:05:50;;;;;;;67.58;34.48;;;;;;;0.82;100.00;102387.70;1716085;82;21087;-71
2022/10/18 04:08:18;;;;;;;73.40;35.98;;;;;;;0.80;100.00;102387.66;1716002;84;21087;-71
2022/10/18 04:10:46;;;;;;;68.22;34.88;;;;;;;0.80;100.00;102383.43;1716420;84;21079;-71
2022/10/18 04:13:15;;;;;;;73.33;36.17;;;;;;;0.82;100.00;102380.09;1716089;84;21130;-71
2022/10/18 04:15:42;;;;;;;70.00;35.28;;;;;;;0.76;100.00;102377.83;1716392;84;22182;-71
2022/10/18 04:18:09;;;;;;;75.97;37.15;;;;;;;0.79;100.00;102382.12;1716082;84;21016;-71
2022/10/18 04:20:36;;;;;;;64.62;34.83;;;;;;;0.77;100.00;102376.14;1716297;84;21052;-71
2022/10/18 04:23:05;;;;;;;75.97;37.00;;;;;;;0.73;100.00;102383.22;1716409;82;21114;-71
2022/10/18 04:25:33;;;;;;;69.50;36.35;;;;;;;0.73;100.00;102379.03;1716068;82;21107;-71
2022/10/18 04:27:59;;;;;;;68.75;35.75;;;;;;;0.77;100.00;102377.41;1716346;82;21044;-71
2022/10/18 04:30:26;;;;;;;69.70;35.23;;;;;;;0.82;100.00;102375.87;1717824;82;21066;-71
2022/10/18 04:32:55;;;;;;;76.05;36.75;;;;;;;0.87;100.00;102370.50;1716050;82;21139;-71
2022/10/18 04:35:24;;;;;;;80.40;37.53;;;;;;;0.84;100.00;102369.17;1716278;82;21075;-71
2022/10/18 04:37:51;;;;;;;73.35;35.85;;;;;;;0.86;100.00;102384.01;1716014;82;21048;-72
2022/10/18 04:40:18;;;;;;;66.67;34.35;;;;;;;0.85;100.00;102383.55;1716424;82;22311;-71
2022/10/18 04:42:46;;;;;;;66.25;33.95;;;;;;;0.90;100.00;102391.30;1716314;82;21685;-71
2022/10/18 04:45:13;;;;;;;66.53;35.70;;;;;;;0.98;100.00;102388.12;1716358;83;21052;-71
2022/10/18 04:47:40;;;;;;;69.05;34.13;;;;;;;1.07;100.00;102398.06;1716112;83;21079;-71
2022/10/18 04:50:08;;;;;;;68.62;33.98;;;;;;;1.09;100.00;102397.27;1716110;82;21098;-71
2022/10/18 04:52:35;;;;;;;66.17;33.83;;;;;;;1.11;100.00;102396.05;1716402;82;21075;-71
2022/10/18 04:55:04;;;;;;;68.52;34.80;;;;;;;1.20;100.00;102387.00;1716175;82;21544;-71
2022/10/18 04:57:30;;;;;;;68.78;34.95;;;;;;;1.30;100.00;102386.81;1716264;83;21047;-72
2022/10/18 04:59:57;;;;;;;68.90;35.35;;;;;;;1.35;100.00;102393.27;1716220;82;21559;-72
2022/10/18 05:02:24;;;;;;;74.17;36.00;;;;;;;1.38;100.00;102397.16;1716400;82;21047;-72
2022/10/18 05:04:52;;;;;;;71.57;36.58;;;;;;;1.35;100.00;102399.19;1716062;82;21056;-72
2022/10/18 05:07:19;;;;;;;77.58;37.30;;;;;;;1.36;100.00;102404.73;1716053;82;21087;-71
2022/10/18 05:09:47;;;;;;;71.45;36.17;;;;;;;1.39;100.00;102399.71;1716003;84;21126;-69
2022/10/18 05:12:15;;;;;;;71.05;35.23;;;;;;;1.50;100.00;102403.80;1715965;83;21063;-72
2022/10/18 05:14:42;;;;;;;73.55;36.48;;;;;;;1.51;100.00;102411.84;1716370;84;21020;-71
2022/10/18 05:17:11;;;;;;;84.75;42.13;;;;;;;1.56;100.00;102408.14;1716071;83;21032;-72
2022/10/18 05:19:38;;;;;;;86.08;43.98;;;;;;;1.57;100.00;102403.11;1716278;82;21044;-71
2022/10/18 05:22:04;;;;;;;84.35;42.90;;;;;;;1.59;100.00;102407.80;1716081;84;21079;-71
2022/10/18 05:24:32;;;;;;;71.92;39.40;;;;;;;1.66;100.00;102405.41;1716271;82;21579;-71
2022/10/18 05:26:59;;;;;;;74.77;38.40;;;;;;;1.73;100.00;102409.41;1715946;82;21060;-71
2022/10/18 05:29:27;;;;;;;73.10;38.73;;;;;;;1.79;100.00;102406.16;1716036;83;21020;-71
2022/10/18 05:31:54;;;;;;;75.62;37.50;;;;;;;1.87;100.00;102399.56;1715886;82;21095;-71
2022/10/18 05:34:23;;;;;;;71.22;37.53;;;;;;;2.00;100.00;102406.61;1715989;82;21088;-71
2022/10/18 05:36:51;;;;;;;75.85;39.08;;;;;;;2.12;100.00;102405.17;1716302;84;21075;-71
2022/10/18 05:39:18;;;;;;;80.40;41.37;;;;;;;2.20;100.00;102401.96;1716119;82;21064;-71
2022/10/18 05:41:45;;;;;;;77.72;39.92;;;;;;;2.32;100.00;102401.36;1716243;82;21559;-71
2022/10/18 05:44:12;;;;;;;78.00;40.20;;;;;;;2.45;100.00;102402.87;1716178;82;21064;-72
2022/10/18 05:46:41;;;;;;;79.35;39.92;;;;;;;2.57;100.00;102400.16;1716289;82;21083;-72
2022/10/18 05:49:11;;;;;;;80.55;39.90;;;;;;;2.70;100.00;102396.61;1716141;82;21122;-71
2022/10/18 05:51:39;;;;;;;73.30;37.30;;;;;;;2.88;100.00;102402.42;1716368;82;21004;-71
2022/10/18 05:54:06;;;;;;;73.55;37.80;;;;;;;2.88;100.00;102402.42;1716367;82;21528;-72
2022/10/18 05:56:35;;;;;;;78.37;38.53;;;;;;;3.07;100.00;102402.36;1716029;82;21079;-72
2022/10/18 05:59:10;;;;;;;78.80;39.03;;;;;;;3.07;100.00;102402.36;1716022;83;21603;-72
2022/10/18 06:01:33;;;;;;;74.58;39.20;;;;;;;3.17;100.00;102399.14;1716018;82;21582;-72
2022/10/18 06:04:00;;;;;;;70.87;37.50;;;;;;;3.27;100.00;102393.36;1716240;82;21088;-72
2022/10/18 06:06:27;;;;;;;77.17;39.67;;;;;;;3.39;100.00;102392.72;1716377;83;21480;-72
2022/10/18 06:08:54;;;;;;;69.97;38.58;;;;;;;3.51;100.00;102389.09;1716120;82;21613;-72
2022/10/18 06:11:22;;;;;;;74.80;39.30;;;;;;;3.64;100.00;102391.81;1716316;82;21555;-72
2022/10/18 06:13:52;;;;;;;77.87;39.18;;;;;;;3.77;100.00;102395.84;1716314;82;21047;-71
2022/10/18 06:16:21;;;;;;;74.80;39.38;;;;;;;3.95;100.00;102390.55;1716119;82;21118;-72
2022/10/18 06:18:51;;;;;;;78.25;41.73;;;;;;;4.08;100.00;102391.17;1716282;84;21079;-71
2022/10/18 06:21:18;;;;;;;84.67;44.35;;;;;;;4.25;100.00;102391.37;1716143;84;21102;-71
2022/10/18 06:23:51;;;;;;;80.55;40.90;;;;;;;4.40;100.00;102393.27;1716354;82;21079;-72
2022/10/18 06:26:21;;;;;;;77.62;39.67;;;;;;;4.58;100.00;102386.22;1716041;83;21147;-71
2022/10/18 06:28:48;;;;;;;78.57;38.33;;;;;;;4.80;100.00;102395.81;1716364;84;21080;-72
2022/10/18 06:31:17;;;;;;;71.80;38.40;;;;;;;4.98;100.00;102393.86;1716083;82;22183;-72
2022/10/18 06:33:46;;;;;;;65.83;34.80;;;;;;;5.18;100.00;102394.05;1714418;82;21626;-72
2022/10/18 06:36:17;;;;;;;63.48;34.35;;;;;;;5.33;100.00;102387.35;1720305;83;21044;-72
2022/10/18 06:38:44;;;;;;;69.97;33.83;;;;;;;5.46;100.00;102393.00;1720029;83;21629;-72
2022/10/18 06:41:11;;;;;;;64.97;34.55;;;;;;;5.63;100.00;102396.52;1720325;83;21091;-72
2022/10/18 06:43:39;;;;;;;61.30;32.67;;;;;;;5.80;100.00;102390.69;1720176;83;21055;-72
2022/10/18 06:46:08;;;;;;;56.02;31.20;;;;;;;5.99;100.00;102400.18;1720055;83;21563;-72
2022/10/18 06:48:37;;;;;;;57.35;31.23;;;;;;;6.16;100.00;102394.30;1716133;83;21079;-72
2022/10/18 06:51:07;;;;;;;58.08;31.57;;;;;;;6.30;100.00;102403.31;1711246;83;21090;-72
2022/10/18 06:53:37;;;;;;;60.90;32.03;;;;;;;6.42;100.00;102398.23;1714754;83;21001;-72
2022/10/18 06:56:10;;;;;;;59.03;32.20;;;;;;;6.55;100.00;102392.33;1712772;83;21049;-72
2022/10/18 06:58:39;;;;;;;54.05;30.80;;;;;;;6.68;100.00;102402.16;1711475;83;21105;-72
2022/10/18 07:01:18;;;;;;;53.48;31.05;;;;;;;6.90;100.00;102399.66;1704911;83;21065;-72
2022/10/18 07:03:44;;;;;;;50.05;29.82;;;;;;;7.06;100.00;102398.83;1705037;83;21082;-72
2022/10/18 07:06:14;;;;;;;49.88;28.65;;;;;;;7.32;100.00;102400.52;1704331;83;21045;-72
2022/10/18 07:08:41;;;;;;;50.38;28.80;;;;;;;7.50;100.00;102399.66;1712545;83;21019;-72
2022/10/18 07:11:16;;;;;;;53.78;29.30;;;;;;;7.73;100.00;102408.63;1704149;83;21085;-72
2022/10/18 07:13:43;;;;;;;49.83;26.77;;;;;;;7.91;100.00;102407.73;1690863;83;21337;-72
2022/10/18 07:16:14;;;;;;;46.25;27.22;;;;;;;8.13;100.00;102411.06;1690780;85;21074;-72
2022/10/18 07:18:47;;;;;;;46.45;25.72;;;;;;;8.40;100.00;102400.70;1691117;84;21064;-72
2022/10/18 07:21:18;;;;;;;45.03;25.02;;;;;;;8.70;100.00;102397.59;1691018;83;21068;-72
2022/10/18 07:23:45;;;;;;;42.67;23.73;;;;;;;8.91;100.00;102392.74;1690881;83;21029;-72
2022/10/18 07:26:20;;;;;;;43.55;23.83;;;;;;;9.09;100.00;102394.77;1690731;85;21092;-73
2022/10/18 07:29:01;;;;;;;40.17;22.95;;;;;;;9.37;100.00;102392.83;1690932;85;21549;-72
2022/10/18 07:31:29;;;;;;;44.10;23.30;;;;;;;9.60;100.00;102390.03;1689645;83;21030;-72
2022/10/18 07:33:57;;;;;;;38.13;21.93;;;;;;;9.96;100.00;102394.38;1690940;85;21147;-72
2022/10/18 07:36:24;;;;;;;39.83;21.97;;;;;;;10.26;100.00;102403.47;1690993;83;21089;-71
2022/10/18 07:38:52;;;;;;;38.17;21.95;;;;;;;10.46;100.00;102401.93;1690564;85;21061;-71
2022/10/18 07:41:20;;;;;;;34.65;20.20;;;;;;;10.67;100.00;102410.27;1690701;84;21080;-71
2022/10/18 07:43:50;;;;;;;31.40;18.37;;;;;;;10.91;100.00;102403.47;1700494;83;21126;-72
2022/10/18 07:46:20;;;;;;;34.60;19.73;;;;;;;11.12;100.00;102404.00;1719660;83;21012;-72
2022/10/18 07:48:48;;;;;;;31.25;16.60;;;;;;;11.38;100.00;102416.47;1719655;83;22198;-72
2022/10/18 07:51:18;;;;;;;29.63;15.08;;;;;;;11.58;100.00;102415.69;1719722;83;21079;-72
2022/10/18 07:53:45;;;;;;;24.87;14.20;;;;;;;11.83;100.00;102421.69;1719209;83;21118;-72
2022/10/18 07:56:15;;;;;;;23.12;12.85;;;;;;;12.13;100.00;102421.57;1719956;83;21052;-72
2022/10/18 07:58:45;;;;;;;22.13;11.60;;;;;;;12.33;100.00;102417.74;1720534;83;21071;-72
2022/10/18 08:01:13;;;;;;;21.70;10.18;;;;;;;12.47;100.00;102412.26;1716133;83;21498;-72
2022/10/18 08:03:42;;;;;;;19.45;8.95;;;;;;;12.56;100.00;102411.62;1704579;83;21070;-72
2022/10/18 08:06:13;;;;;;;24.95;8.70;;;;;;;12.93;100.00;102414.66;1707352;83;20988;-71
2022/10/18 08:08:42;;;;;;;27.93;8.65;;;;;;;13.14;100.00;102417.65;1707062;83;21087;-72
2022/10/18 08:11:14;;;;;;;23.55;8.05;;;;;;;13.28;100.00;102418.58;1704970;83;20994;-72
2022/10/18 08:13:43;;;;;;;24.25;7.80;;;;;;;13.43;100.00;102414.36;1708488;83;20998;-72
2022/10/18 08:16:20;;;;;;;27.05;7.53;;;;;;;13.67;100.00;102408.99;1720152;83;21009;-72
2022/10/18 08:18:47;;;;;;;22.52;7.37;;;;;;;13.86;100.00;102405.45;1709363;83;21021;-72
2022/10/18 08:21:16;;;;;;;18.12;6.92;;;;;;;14.00;100.00;102405.07;1712200;83;21148;-72
2022/10/18 08:23:44;;;;;;;12.45;5.72;;;;;;;14.11;100.00;102403.46;1708459;83;21001;-72
2022/10/18 08:26:15;;;;;;;15.28;6.25;;;;;;;14.25;100.00;102409.55;1708214;83;21069;-72
2022/10/18 08:28:43;;;;;;;15.68;6.65;;;;;;;14.42;100.00;102401.68;1708569;83;21013;-72
2022/10/18 08:31:16;;;;;;;12.00;6.10;;;;;;;14.55;98.39;102401.31;1712263;83;21033;-71
2022/10/18 08:33:45;;;;;;;10.90;5.70;;;;;;;14.59;91.97;102399.06;1708499;83;21577;-72
2022/10/18 08:36:15;;;;;;;11.05;5.35;;;;;;;14.68;91.59;102399.21;1708307;83;21008;-72
2022/10/18 08:38:43;;;;;;;12.55;6.00;;;;;;;14.86;82.93;102401.22;1712197;83;21041;-72
2022/10/18 08:41:38;;;;;;;13.43;5.83;;;;;;;14.86;88.19;102397.79;1704880;83;21073;-72
2022/10/18 08:44:19;;;;;;;12.58;6.00;;;;;;;14.91;83.09;102398.05;1702453;83;21028;-72
2022/10/18 08:46:52;;;;;;;14.63;6.20;;;;;;;14.98;84.61;102396.09;1707311;83;21047;-71
2022/10/18 08:49:30;;;;;;;14.95;6.40;;;;;;;15.12;84.83;102397.78;1705737;83;21016;-72
2022/10/18 08:51:58;;;;;;;12.37;6.08;;;;;;;15.22;82.60;102397.04;1690013;83;21041;-72
2022/10/18 08:54:30;;;;;;;15.72;6.30;;;;;;;15.30;83.56;102393.73;1719902;83;21041;-71
2022/10/18 08:57:03;;;;;;;11.83;6.83;;;;;;;15.41;81.76;102391.64;1708390;83;21017;-71
2022/10/18 08:59:35;;;;;;;14.00;7.78;;;;;;;15.57;81.69;102388.49;1707283;83;21040;-72
2022/10/18 09:02:17;;;;;;;11.57;6.30;;;;;;;15.69;81.38;102389.81;1711511;83;21515;-71
2022/10/18 09:04:52;;;;;;;11.10;6.95;;;;;;;15.78;80.32;102384.34;1711119;83;21080;-71
2022/10/18 09:07:52;;;;;;;12.28;6.20;;;;;;;15.87;81.18;102381.85;1710543;83;21557;-71
2022/10/18 09:10:41;;;;;;;12.33;5.62;;;;;;;15.92;82.04;102383.39;1699421;83;21144;-72
2022/10/18 09:13:20;;;;;;;10.25;5.65;;;;;;;15.96;78.64;102375.04;1690859;83;21028;-72
2022/10/18 09:16:05;;;;;;;9.18;5.62;;;;;;;16.05;77.54;102369.94;1690814;84;21073;-72
2022/10/18 09:19:08;;;;;;;9.25;5.75;;;;;;;16.06;77.26;102362.10;1690915;85;21065;-72
2022/10/18 09:21:52;;;;;;;10.73;5.47;;;;;;;16.11;80.13;102351.53;1691158;83;21064;-72
2022/10/18 09:24:33;;;;;;;10.75;5.40;;;;;;;16.19;81.62;102350.32;1690659;83;21525;-72
2022/10/18 09:27:06;;;;;;;13.18;6.08;;;;;;;16.20;82.86;102348.13;1690752;83;21029;-72
2022/10/18 09:29:59;;;;;;;8.95;5.20;;;;;;;16.23;82.55;102344.56;1689895;83;21128;-72
2022/10/18 09:32:49;;;;;;;9.98;4.90;;;;;;;16.35;80.60;102341.48;1714297;83;21028;-72
2022/10/18 09:35:30;;;;;;;7.28;4.53;;;;;;;16.49;72.80;102334.45;1719508;83;21044;-71
2022/10/18 09:38:09;;;;;;;9.35;4.78;;;;;;;16.57;66.87;102331.55;1715905;83;21079;-72
2022/10/18 09:40:47;;;;;;;9.78;4.90;;;;;;;16.56;67.61;102330.67;1690665;85;21042;-71
2022/10/18 09:43:22;;;;;;;7.45;4.53;;;;;;;16.64;64.24;102327.77;1655210;85;21066;-71
2022/10/18 09:45:52;;;;;;;8.88;4.20;;;;;;;16.74;61.97;102319.15;1690127;85;21520;-71
2022/10/18 09:48:27;;;;;;;8.38;4.30;;;;;;;16.89;62.67;102320.29;1690536;85;21039;-71
2022/10/18 09:51:06;;;;;;;7.87;4.50;;;;;;;16.93;59.96;102321.85;1690799;85;21050;-72
2022/10/18 09:53:44;;;;;;;9.15;3.77;;;;;;;16.93;60.91;102315.34;1691395;85;21046;-71
2022/10/18 09:56:31;;;;;;;9.33;4.05;;;;;;;16.94;61.18;102315.29;1675617;85;21089;-72
2022/10/18 09:59:00;;;;;;;6.00;4.30;;;;;;;17.08;61.72;102308.20;1690475;83;21079;-71
2022/10/18 10:01:30;;;;;;;7.25;3.95;;;;;;;17.14;60.48;102300.14;1691432;85;21046;-72
2022/10/18 10:03:58;;;;;;;9.68;4.45;;;;;;;17.16;59.59;102296.17;1691226;85;21155;-72
2022/10/18 10:06:29;;;;;;;6.22;4.05;;;;;;;17.19;60.61;102286.48;1703420;83;21079;-71
2022/10/18 10:09:06;;;;;;;6.62;3.62;;;;;;;17.29;57.07;102289.50;1714223;83;21567;-71
2022/10/18 10:11:46;;;;;;;6.85;3.92;;;;;;;17.32;57.08;102284.18;1720499;83;21681;-72
2022/10/18 10:14:25;;;;;;;8.78;4.20;;;;;;;17.32;57.50;102273.77;1720329;83;21060;-72
2022/10/18 10:17:05;;;;;;;7.10;4.00;;;;;;;17.28;55.35;102279.19;1720314;83;21025;-71
2022/10/18 10:19:40;;;;;;;9.30;4.15;;;;;;;17.38;57.50;102276.09;1717601;83;20995;-72
2022/10/18 10:22:13;;;;;;;7.22;3.85;;;;;;;17.35;59.58;102267.11;1713860;83;21059;-72
2022/10/18 10:24:50;;;;;;;8.60;4.00;;;;;;;17.46;57.19;102259.27;1716356;84;21027;-73
2022/10/18 10:27:42;;;;;;;7.00;3.77;;;;;;;17.56;56.77;102252.30;1715573;83;21361;-73
2022/10/18 10:30:31;;;;;;;6.53;3.83;;;;;;;17.67;57.54;102250.49;1716105;83;21035;-72
2022/10/18 10:32:59;;;;;;;6.50;4.25;;;;;;;17.64;55.82;102244.14;1715853;84;21630;-73
2022/10/18 10:35:38;;;;;;;9.10;3.85;;;;;;;17.62;55.53;102242.90;1715748;82;21126;-73
2022/10/18 10:38:06;;;;;;;6.10;3.72;;;;;;;17.59;55.46;102244.33;1735835;82;20992;-73
2022/10/18 10:40:44;;;;;;;8.60;3.65;;;;;;;17.63;52.22;102235.92;1750483;82;21027;-73
2022/10/18 10:43:33;;;;;;;6.33;3.52;;;;;;;17.78;50.32;102230.45;1750261;82;21075;-73
2022/10/18 10:46:14;;;;;;;4.05;3.40;;;;;;;17.85;49.09;102225.84;1750499;82;21507;-73
2022/10/18 10:48:51;;;;;;;7.85;3.85;;;;;;;17.97;50.30;102227.41;1750448;82;21492;-73
2022/10/18 10:51:37;;;;;;;7.78;3.15;;;;;;;17.96;50.72;102219.65;1750367;82;21019;-73
2022/10/18 10:54:17;;;;;;;6.33;3.60;;;;;;;17.98;47.36;102214.77;1750160;82;21039;-73
2022/10/18 10:57:03;;;;;;;5.92;3.33;;;;;;;18.10;48.43;102211.17;1750498;82;21035;-73
2022/10/18 10:59:35;;;;;;;10.28;3.87;;;;;;;17.94;50.47;102200.64;1750480;82;21103;-73
2022/10/18 11:02:34;;;;;;;4.80;3.35;;;;;;;17.92;49.50;102194.66;1749653;82;21391;-73
2022/10/18 11:05:25;;;;;;;7.15;4.00;;;;;;;18.08;48.30;102196.91;1749956;82;21570;-73
2022/10/18 11:08:00;;;;;;;5.70;3.60;;;;;;;18.16;47.72;102201.75;1713576;82;21063;-72
2022/10/18 11:10:38;;;;;;;7.70;3.58;;;;;;;18.14;47.27;102196.61;1750338;82;21023;-73
2022/10/18 11:13:31;;;;;;;8.90;4.25;;;;;;;18.13;49.41;102194.93;1749042;82;21071;-72
2022/10/18 11:16:07;;;;;;;7.47;4.20;;;;;;;18.29;48.21;102192.85;1750569;82;21508;-73
2022/10/18 11:18:37;;;;;;;5.53;3.65;;;;;;;18.22;49.28;102183.20;1749918;82;21320;-73
2022/10/18 11:21:16;;;;;;;6.62;3.87;;;;;;;18.19;51.51;102178.16;1750461;82;21075;-73
2022/10/18 11:23:44;;;;;;;5.70;3.58;;;;;;;18.27;49.77;102173.84;1750353;82;20999;-73
2022/10/18 11:26:35;;;;;;;7.12;3.58;;;;;;;18.30;51.73;102168.48;1750307;82;21054;-73
2022/10/18 11:29:33;;;;;;;7.37;3.98;;;;;;;18.34;50.11;102168.25;1750155;82;21047;-73
2022/10/18 11:32:17;;;;;;;10.55;4.10;;;;;;;18.38;49.61;102163.73;1750465;82;21035;-73
2022/10/18 11:35:04;;;;;;;5.75;4.05;;;;;;;18.32;49.89;102157.52;1750258;82;21110;-72
2022/10/18 11:37:52;;;;;;;12.47;4.60;;;;;;;18.44;49.46;102159.50;1750422;82;21058;-73